sensor_id;sensor_type;location;lat;lon;timestamp;pressure;altitude;pressure_sealevel;temperature;humidity
8286;BME280;4181;43.416;24.598;2022-09-12T00:09:11;99624.88;;;21.21;100.00
8286;BME280;4181;43.416;24.598;2022-09-12T00:11:40;99620.16;;;21.22;100.00
8286;BME280;4181;43.416;24.598;2022-09-12T00:14:09;99613.53;;;21.14;100.00
8286;BME280;4181;43.416;24.598;2022-09-12T00:16:37;99632.66;;;21.36;100.00
8286;BME280;4181;43.416;24.598;2022-09-12T00:19:04;99634.97;;;21.34;100.00
8286;BME280;4181;43.416;24.598;2022-09-12T00:21:33;99636.28;;;21.28;100.00
8286;BME280;4181;43.416;24.598;2022-09-12T00:23:59;99628.44;;;21.30;100.00
8286;BME280;4181;43.416;24.598;2022-09-12T00:26:24;99629.91;;;21.28;100.00
8286;BME280;4181;43.416;24.598;2022-09-12T00:28:50;99643.47;;;21.29;100.00
8286;BME280;4181;43.416;24.598;2022-09-12T00:31:18;99630.75;;;21.28;100.00
8286;BME280;4181;43.416;24.598;2022-09-12T00:33:44;99639.94;;;21.20;100.00
8286;BME280;4181;43.416;24.598;2022-09-12T00:36:17;99654.66;;;21.12;100.00
8286;BME280;4181;43.416;24.598;2022-09-12T00:38:44;99648.28;;;21.12;100.00
8286;BME280;4181;43.416;24.598;2022-09-12T00:41:19;99644.22;;;21.09;100.00
8286;BME280;4181;43.416;24.598;2022-09-12T00:43:53;99652.38;;;21.14;100.00
8286;BME280;4181;43.416;24.598;2022-09-12T00:46:29;99646.03;;;21.05;100.00
8286;BME280;4181;43.416;24.598;2022-09-12T00:49:14;99630.72;;;20.99;100.00
8286;BME280;4181;43.416;24.598;2022-09-12T00:51:50;99629.38;;;21.05;100.00
8286;BME280;4181;43.416;24.598;2022-09-12T00:54:21;99620.88;;;21.10;100.00
8286;BME280;4181;43.416;24.598;2022-09-12T00:56:49;99641.25;;;21.14;100.00
8286;BME280;4181;43.416;24.598;2022-09-12T00:59:24;99630.72;;;20.91;100.00
8286;BME280;4181;43.416;24.598;2022-09-12T01:01:51;99641.31;;;20.89;100.00
8286;BME280;4181;43.416;24.598;2022-09-12T01:04:20;99618.69;;;20.70;100.00
8286;BME280;4181;43.416;24.598;2022-09-12T01:06:47;99643.97;;;20.68;100.00
8286;BME280;4181;43.416;24.598;2022-09-12T01:09:16;99632.72;;;20.73;100.00
8286;BME280;4181;43.416;24.598;2022-09-12T01:11:44;99636.16;;;20.62;100.00
8286;BME280;4181;43.416;24.598;2022-09-12T01:14:12;99638.94;;;20.62;100.00
8286;BME280;4181;43.416;24.598;2022-09-12T01:16:38;99607.50;;;20.49;100.00
8286;BME280;4181;43.416;24.598;2022-09-12T01:36:43;99617.16;;;20.18;100.00
8286;BME280;4181;43.416;24.598;2022-09-12T01:42:21;99614.41;;;20.26;100.00
8286;BME280;4181;43.416;24.598;2022-09-12T01:45:19;99618.63;;;20.32;100.00
8286;BME280;4181;43.416;24.598;2022-09-12T01:47:50;99600.84;;;20.33;100.00
8286;BME280;4181;43.416;24.598;2022-09-12T01:50:29;99583.09;;;20.17;100.00
8286;BME280;4181;43.416;24.598;2022-09-12T01:53:00;99619.75;;;20.31;100.00
8286;BME280;4181;43.416;24.598;2022-09-12T01:55:33;99609.16;;;20.33;100.00
8286;BME280;4181;43.416;24.598;2022-09-12T01:58:52;99587.78;;;20.08;100.00
8286;BME280;4181;43.416;24.598;2022-09-12T02:01:09;99599.19;;;19.98;100.00
8286;BME280;4181;43.416;24.598;2022-09-12T02:03:49;99620.22;;;20.07;100.00
8286;BME280;4181;43.416;24.598;2022-09-12T02:06:25;99603.13;;;19.88;100.00
8286;BME280;4181;43.416;24.598;2022-09-12T02:08:54;99598.72;;;19.79;100.00
8286;BME280;4181;43.416;24.598;2022-09-12T02:11:25;99612.41;;;19.84;100.00
8286;BME280;4181;43.416;24.598;2022-09-12T02:16:48;99620.06;;;19.95;100.00
8286;BME280;4181;43.416;24.598;2022-09-12T02:19:18;99614.38;;;20.00;100.00
8286;BME280;4181;43.416;24.598;2022-09-12T02:21:50;99618.28;;;19.91;100.00
8286;BME280;4181;43.416;24.598;2022-09-12T02:24:20;99613.06;;;19.81;100.00
8286;BME280;4181;43.416;24.598;2022-09-12T02:26:54;99606.84;;;19.67;100.00
8286;BME280;4181;43.416;24.598;2022-09-12T02:29:22;99593.34;;;19.65;100.00
8286;BME280;4181;43.416;24.598;2022-09-12T02:32:06;99583.88;;;19.49;100.00
8286;BME280;4181;43.416;24.598;2022-09-12T02:34:51;99591.69;;;19.47;100.00
8286;BME280;4181;43.416;24.598;2022-09-12T02:40:11;99601.47;;;19.62;100.00
8286;BME280;4181;43.416;24.598;2022-09-12T02:42:45;99585.47;;;19.42;100.00
8286;BME280;4181;43.416;24.598;2022-09-12T02:45:11;99586.16;;;19.56;100.00
8286;BME280;4181;43.416;24.598;2022-09-12T02:47:45;99599.19;;;19.55;100.00
8286;BME280;4181;43.416;24.598;2022-09-12T02:50:13;99616.78;;;19.59;100.00
8286;BME280;4181;43.416;24.598;2022-09-12T02:52:40;99602.75;;;19.47;100.00
8286;BME280;4181;43.416;24.598;2022-09-12T02:55:06;99597.53;;;19.46;100.00
8286;BME280;4181;43.416;24.598;2022-09-12T02:57:36;99604.22;;;19.53;100.00
8286;BME280;4181;43.416;24.598;2022-09-12T03:00:03;99613.00;;;19.47;100.00
8286;BME280;4181;43.416;24.598;2022-09-12T03:02:50;99612.84;;;19.52;100.00
8286;BME280;4181;43.416;24.598;2022-09-12T03:35:31;99621.84;;;19.83;100.00
8286;BME280;4181;43.416;24.598;2022-09-12T03:37:57;99615.00;;;19.72;100.00
8286;BME280;4181;43.416;24.598;2022-09-12T03:40:22;99607.00;;;19.62;100.00
8286;BME280;4181;43.416;24.598;2022-09-12T03:42:48;99615.66;;;19.77;100.00
8286;BME280;4181;43.416;24.598;2022-09-12T03:45:13;99636.78;;;19.65;100.00
8286;BME280;4181;43.416;24.598;2022-09-12T03:47:40;99625.91;;;19.68;100.00
8286;BME280;4181;43.416;24.598;2022-09-12T03:50:06;99624.28;;;19.76;100.00
8286;BME280;4181;43.416;24.598;2022-09-12T03:52:32;99614.34;;;19.75;100.00
8286;BME280;4181;43.416;24.598;2022-09-12T03:54:58;99629.16;;;19.70;100.00
8286;BME280;4181;43.416;24.598;2022-09-12T03:57:24;99621.84;;;19.66;100.00
8286;BME280;4181;43.416;24.598;2022-09-12T03:59:50;99621.34;;;19.64;100.00
8286;BME280;4181;43.416;24.598;2022-09-12T04:02:15;99627.84;;;19.68;100.00
8286;BME280;4181;43.416;24.598;2022-09-12T04:04:41;99625.38;;;19.58;100.00
8286;BME280;4181;43.416;24.598;2022-09-12T04:07:08;99629.28;;;19.57;100.00
8286;BME280;4181;43.416;24.598;2022-09-12T04:09:34;99613.00;;;19.47;100.00
8286;BME280;4181;43.416;24.598;2022-09-12T04:12:00;99623.09;;;19.60;100.00
8286;BME280;4181;43.416;24.598;2022-09-12T04:14:25;99619.88;;;19.75;100.00
8286;BME280;4181;43.416;24.598;2022-09-12T04:16:51;99613.53;;;19.91;100.00
8286;BME280;4181;43.416;24.598;2022-09-12T04:19:16;99622.19;;;20.07;100.00
8286;BME280;4181;43.416;24.598;2022-09-12T04:21:45;99623.63;;;20.04;100.00
8286;BME280;4181;43.416;24.598;2022-09-12T04:24:10;99648.56;;;20.04;100.00
8286;BME280;4181;43.416;24.598;2022-09-12T04:26:36;99634.56;;;20.27;100.00
8286;BME280;4181;43.416;24.598;2022-09-12T04:29:02;99625.78;;;20.33;100.00
8286;BME280;4181;43.416;24.598;2022-09-12T04:31:40;99615.31;;;20.56;100.00
8286;BME280;4181;43.416;24.598;2022-09-12T04:34:34;99602.66;;;20.84;100.00
8286;BME280;4181;43.416;24.598;2022-09-12T04:44:45;99646.06;;;21.93;100.00
8286;BME280;4181;43.416;24.598;2022-09-12T04:47:11;99643.53;;;22.00;100.00
8286;BME280;4181;43.416;24.598;2022-09-12T04:49:39;99639.28;;;22.23;100.00
8286;BME280;4181;43.416;24.598;2022-09-12T04:52:06;99647.84;;;22.50;100.00
8286;BME280;4181;43.416;24.598;2022-09-12T04:54:32;99652.00;;;22.44;100.00
8286;BME280;4181;43.416;24.598;2022-09-12T04:57:02;99647.19;;;22.53;100.00
8286;BME280;4181;43.416;24.598;2022-09-12T04:59:51;99648.56;;;22.80;100.00
8286;BME280;4181;43.416;24.598;2022-09-12T05:02:16;99660.63;;;22.84;100.00
8286;BME280;4181;43.416;24.598;2022-09-12T05:04:43;99644.91;;;23.00;100.00
8286;BME280;4181;43.416;24.598;2022-09-12T05:07:11;99651.44;;;23.16;100.00
8286;BME280;4181;43.416;24.598;2022-09-12T05:09:37;99667.56;;;23.23;100.00
8286;BME280;4181;43.416;24.598;2022-09-12T05:12:02;99661.75;;;23.16;100.00
8286;BME280;4181;43.416;24.598;2022-09-12T05:14:29;99648.66;;;23.28;100.00
8286;BME280;4181;43.416;24.598;2022-09-12T05:16:56;99664.13;;;23.38;100.00
8286;BME280;4181;43.416;24.598;2022-09-12T05:19:25;99662.47;;;23.37;100.00
8286;BME280;4181;43.416;24.598;2022-09-12T05:21:51;99661.56;;;23.57;100.00
8286;BME280;4181;43.416;24.598;2022-09-12T05:24:21;99663.41;;;23.77;100.00
8286;BME280;4181;43.416;24.598;2022-09-12T05:26:47;99632.53;;;23.82;100.00
8286;BME280;4181;43.416;24.598;2022-09-12T05:29:14;99663.00;;;24.27;100.00
8286;BME280;4181;43.416;24.598;2022-09-12T05:31:41;99652.53;;;24.24;100.00
8286;BME280;4181;43.416;24.598;2022-09-12T05:34:08;99654.78;;;24.46;100.00
8286;BME280;4181;43.416;24.598;2022-09-12T05:36:35;99638.63;;;24.51;100.00
8286;BME280;4181;43.416;24.598;2022-09-12T05:39:02;99647.25;;;24.74;100.00
8286;BME280;4181;43.416;24.598;2022-09-12T05:41:32;99635.94;;;24.82;100.00
8286;BME280;4181;43.416;24.598;2022-09-12T05:44:04;99649.91;;;25.29;100.00
8286;BME280;4181;43.416;24.598;2022-09-12T05:46:35;99653.16;;;25.16;100.00
8286;BME280;4181;43.416;24.598;2022-09-12T05:49:02;99652.00;;;25.17;100.00
8286;BME280;4181;43.416;24.598;2022-09-12T05:51:32;99641.72;;;25.21;100.00
8286;BME280;4181;43.416;24.598;2022-09-12T05:53:59;99632.44;;;25.32;100.00
8286;BME280;4181;43.416;24.598;2022-09-12T05:56:27;99634.72;;;25.42;100.00
8286;BME280;4181;43.416;24.598;2022-09-12T05:59:01;99640.94;;;25.67;100.00
8286;BME280;4181;43.416;24.598;2022-09-12T06:01:28;99636.75;;;25.76;100.00
8286;BME280;4181;43.416;24.598;2022-09-12T06:03:56;99631.75;;;25.85;100.00
8286;BME280;4181;43.416;24.598;2022-09-12T06:06:25;99641.28;;;26.00;100.00
8286;BME280;4181;43.416;24.598;2022-09-12T06:08:55;99651.84;;;26.06;100.00
8286;BME280;4181;43.416;24.598;2022-09-12T06:11:23;99617.56;;;26.09;100.00
8286;BME280;4181;43.416;24.598;2022-09-12T06:13:50;99630.91;;;26.35;100.00
8286;BME280;4181;43.416;24.598;2022-09-12T06:16:21;99627.38;;;26.38;100.00
8286;BME280;4181;43.416;24.598;2022-09-12T06:18:52;99633.25;;;26.33;100.00
8286;BME280;4181;43.416;24.598;2022-09-12T06:21:19;99616.97;;;26.19;100.00
8286;BME280;4181;43.416;24.598;2022-09-12T06:23:46;99610.34;;;26.66;100.00
8286;BME280;4181;43.416;24.598;2022-09-12T06:26:17;99620.56;;;26.77;100.00
8286;BME280;4181;43.416;24.598;2022-09-12T06:28:45;99619.78;;;26.77;100.00
8286;BME280;4181;43.416;24.598;2022-09-12T06:31:18;99620.06;;;26.53;100.00
8286;BME280;4181;43.416;24.598;2022-09-12T06:33:47;99606.53;;;26.74;100.00
8286;BME280;4181;43.416;24.598;2022-09-12T06:36:26;99619.41;;;27.01;100.00
8286;BME280;4181;43.416;24.598;2022-09-12T06:38:58;99615.06;;;27.26;100.00
8286;BME280;4181;43.416;24.598;2022-09-12T06:41:25;99612.97;;;27.42;100.00
8286;BME280;4181;43.416;24.598;2022-09-12T06:43:54;99612.00;;;27.57;100.00
8286;BME280;4181;43.416;24.598;2022-09-12T06:46:20;99613.59;;;27.84;100.00
8286;BME280;4181;43.416;24.598;2022-09-12T06:48:46;99592.84;;;27.89;100.00
8286;BME280;4181;43.416;24.598;2022-09-12T06:51:14;99612.78;;;28.39;100.00
8286;BME280;4181;43.416;24.598;2022-09-12T06:53:40;99604.81;;;28.45;100.00
8286;BME280;4181;43.416;24.598;2022-09-12T06:56:12;99606.50;;;28.49;100.00
8286;BME280;4181;43.416;24.598;2022-09-12T06:58:39;99608.97;;;28.54;100.00
8286;BME280;4181;43.416;24.598;2022-09-12T07:01:19;99617.72;;;28.49;100.00
8286;BME280;4181;43.416;24.598;2022-09-12T07:03:50;99595.28;;;28.49;100.00
8286;BME280;4181;43.416;24.598;2022-09-12T07:06:18;99634.84;;;28.71;100.00
8286;BME280;4181;43.416;24.598;2022-09-12T07:08:44;99614.06;;;28.79;100.00
8286;BME280;4181;43.416;24.598;2022-09-12T07:11:21;99627.28;;;29.15;100.00
8286;BME280;4181;43.416;24.598;2022-09-12T07:13:49;99608.91;;;29.21;100.00
8286;BME280;4181;43.416;24.598;2022-09-12T07:16:15;99625.78;;;28.88;100.00
8286;BME280;4181;43.416;24.598;2022-09-12T07:18:42;99646.81;;;28.64;100.00
8286;BME280;4181;43.416;24.598;2022-09-12T07:21:13;99639.81;;;28.84;100.00
8286;BME280;4181;43.416;24.598;2022-09-12T07:23:40;99640.59;;;28.85;100.00
8286;BME280;4181;43.416;24.598;2022-09-12T07:26:08;99638.38;;;29.01;100.00
8286;BME280;4181;43.416;24.598;2022-09-12T07:28:34;99641.47;;;28.89;100.00
8286;BME280;4181;43.416;24.598;2022-09-12T07:31:20;99630.53;;;29.17;100.00
8286;BME280;4181;43.416;24.598;2022-09-12T07:33:46;99628.81;;;29.49;100.00
8286;BME280;4181;43.416;24.598;2022-09-12T07:36:13;99629.94;;;29.44;100.00
8286;BME280;4181;43.416;24.598;2022-09-12T07:38:40;99625.56;;;29.47;100.00
8286;BME280;4181;43.416;24.598;2022-09-12T07:41:14;99629.22;;;29.51;100.00
8286;BME280;4181;43.416;24.598;2022-09-12T07:43:41;99622.22;;;29.78;100.00
8286;BME280;4181;43.416;24.598;2022-09-12T07:46:07;99638.25;;;29.70;100.00
8286;BME280;4181;43.416;24.598;2022-09-12T07:48:33;99633.19;;;29.46;100.00
8286;BME280;4181;43.416;24.598;2022-09-12T07:51:00;99629.97;;;29.48;100.00
8286;BME280;4181;43.416;24.598;2022-09-12T07:53:30;99634.06;;;29.54;100.00
8286;BME280;4181;43.416;24.598;2022-09-12T07:55:57;99623.03;;;29.78;100.00
8286;BME280;4181;43.416;24.598;2022-09-12T07:58:23;99620.41;;;30.10;100.00
8286;BME280;4181;43.416;24.598;2022-09-12T08:00:49;99617.97;;;30.09;100.00
8286;BME280;4181;43.416;24.598;2022-09-12T08:03:14;99602.22;;;29.94;100.00
8286;BME280;4181;43.416;24.598;2022-09-12T08:05:40;99601.88;;;30.02;100.00
8286;BME280;4181;43.416;24.598;2022-09-12T08:08:05;99609.06;;;29.96;100.00
8286;BME280;4181;43.416;24.598;2022-09-12T08:10:30;99615.06;;;29.95;100.00
8286;BME280;4181;43.416;24.598;2022-09-12T08:12:56;99623.16;;;30.00;100.00
8286;BME280;4181;43.416;24.598;2022-09-12T08:15:22;99622.28;;;29.89;100.00
8286;BME280;4181;43.416;24.598;2022-09-12T08:17:47;99620.19;;;29.75;100.00
8286;BME280;4181;43.416;24.598;2022-09-12T08:20:13;99636.47;;;29.52;100.00
8286;BME280;4181;43.416;24.598;2022-09-12T08:22:39;99615.13;;;29.47;100.00
8286;BME280;4181;43.416;24.598;2022-09-12T08:25:05;99606.00;;;29.64;100.00
8286;BME280;4181;43.416;24.598;2022-09-12T08:27:31;99596.09;;;29.74;100.00
8286;BME280;4181;43.416;24.598;2022-09-12T08:29:56;99597.44;;;30.05;100.00
8286;BME280;4181;43.416;24.598;2022-09-12T08:32:22;99601.50;;;30.07;100.00
8286;BME280;4181;43.416;24.598;2022-09-12T08:34:47;99604.59;;;29.88;100.00
8286;BME280;4181;43.416;24.598;2022-09-12T08:37:12;99590.16;;;29.93;100.00
8286;BME280;4181;43.416;24.598;2022-09-12T08:39:38;99614.50;;;29.68;100.00
8286;BME280;4181;43.416;24.598;2022-09-12T08:42:05;99600.81;;;29.16;100.00
8286;BME280;4181;43.416;24.598;2022-09-12T08:49:47;99632.50;;;28.46;100.00
8286;BME280;4181;43.416;24.598;2022-09-12T08:55:04;99612.41;;;28.74;100.00
8286;BME280;4181;43.416;24.598;2022-09-12T08:57:31;99601.97;;;28.41;100.00
8286;BME280;4181;43.416;24.598;2022-09-12T08:59:57;99633.47;;;28.28;100.00
8286;BME280;4181;43.416;24.598;2022-09-12T09:02:45;99624.06;;;28.13;100.00
8286;BME280;4181;43.416;24.598;2022-09-12T09:17:44;99609.94;;;28.06;100.00
8286;BME280;4181;43.416;24.598;2022-09-12T09:20:20;99603.31;;;28.21;100.00
8286;BME280;4181;43.416;24.598;2022-09-12T09:23:31;99607.72;;;28.19;100.00
8286;BME280;4181;43.416;24.598;2022-09-12T09:25:47;99600.66;;;28.32;100.00
8286;BME280;4181;43.416;24.598;2022-09-12T09:28:22;99594.63;;;28.63;100.00
8286;BME280;4181;43.416;24.598;2022-09-12T09:30:50;99583.56;;;28.77;100.00
8286;BME280;4181;43.416;24.598;2022-09-12T09:33:26;99588.38;;;28.77;100.00
8286;BME280;4181;43.416;24.598;2022-09-12T09:36:17;99594.84;;;28.81;100.00
8286;BME280;4181;43.416;24.598;2022-09-12T09:38:49;99595.56;;;28.74;100.00
8286;BME280;4181;43.416;24.598;2022-09-12T09:44:02;99577.75;;;29.00;100.00
8286;BME280;4181;43.416;24.598;2022-09-12T09:46:28;99577.28;;;28.91;100.00
8286;BME280;4181;43.416;24.598;2022-09-12T09:48:54;99588.88;;;28.52;100.00
8286;BME280;4181;43.416;24.598;2022-09-12T09:51:33;99593.34;;;28.24;100.00
8286;BME280;4181;43.416;24.598;2022-09-12T09:54:12;99591.72;;;28.23;100.00
8286;BME280;4181;43.416;24.598;2022-09-12T09:56:41;99571.66;;;28.50;100.00
8286;BME280;4181;43.416;24.598;2022-09-12T09:59:29;99585.78;;;28.61;100.00
8286;BME280;4181;43.416;24.598;2022-09-12T10:01:58;99589.97;;;28.44;100.00
8286;BME280;4181;43.416;24.598;2022-09-12T10:04:38;99581.06;;;28.69;100.00
8286;BME280;4181;43.416;24.598;2022-09-12T10:07:04;99554.25;;;29.15;100.00
8286;BME280;4181;43.416;24.598;2022-09-12T10:09:34;99567.50;;;29.18;100.00
8286;BME280;4181;43.416;24.598;2022-09-12T10:12:19;99578.75;;;29.18;100.00
8286;BME280;4181;43.416;24.598;2022-09-12T10:14:56;99566.22;;;29.08;100.00
8286;BME280;4181;43.416;24.598;2022-09-12T10:17:31;99579.91;;;29.13;100.00
8286;BME280;4181;43.416;24.598;2022-09-12T10:19:57;99574.03;;;29.29;100.00
8286;BME280;4181;43.416;24.598;2022-09-12T10:22:28;99568.19;;;29.55;100.00
8286;BME280;4181;43.416;24.598;2022-09-12T10:24:56;99576.22;;;29.53;100.00
8286;BME280;4181;43.416;24.598;2022-09-12T10:27:32;99556.88;;;29.41;100.00
8286;BME280;4181;43.416;24.598;2022-09-12T10:30:01;99586.25;;;29.07;100.00
8286;BME280;4181;43.416;24.598;2022-09-12T10:32:40;99594.16;;;28.57;100.00
8286;BME280;4181;43.416;24.598;2022-09-12T10:35:21;99589.53;;;28.42;100.00
8286;BME280;4181;43.416;24.598;2022-09-12T10:37:54;99595.09;;;28.35;100.00
8286;BME280;4181;43.416;24.598;2022-09-12T10:40:26;99573.22;;;28.18;100.00
8286;BME280;4181;43.416;24.598;2022-09-12T10:45:50;99591.22;;;28.14;100.00
8286;BME280;4181;43.416;24.598;2022-09-12T10:48:30;99600.19;;;27.97;100.00
8286;BME280;4181;43.416;24.598;2022-09-12T10:51:02;99603.06;;;28.00;100.00
8286;BME280;4181;43.416;24.598;2022-09-12T10:53:38;99589.38;;;27.95;100.00
8286;BME280;4181;43.416;24.598;2022-09-12T11:01:57;99586.69;;;28.35;100.00
8286;BME280;4181;43.416;24.598;2022-09-12T11:04:41;99593.97;;;28.10;100.00
8286;BME280;4181;43.416;24.598;2022-09-12T11:18:18;99578.34;;;28.76;100.00
8286;BME280;4181;43.416;24.598;2022-09-12T11:24:14;99566.47;;;28.56;100.00
8286;BME280;4181;43.416;24.598;2022-09-12T11:27:27;99568.97;;;28.65;100.00
8286;BME280;4181;43.416;24.598;2022-09-12T11:29:57;99558.69;;;28.76;100.00
8286;BME280;4181;43.416;24.598;2022-09-12T11:35:28;99534.00;;;28.99;100.00
8286;BME280;4181;43.416;24.598;2022-09-12T11:38:17;99566.06;;;28.94;100.00
8286;BME280;4181;43.416;24.598;2022-09-12T11:40:52;99570.03;;;28.90;100.00
8286;BME280;4181;43.416;24.598;2022-09-12T11:43:34;99569.66;;;28.54;100.00
8286;BME280;4181;43.416;24.598;2022-09-12T11:51:56;99576.09;;;27.92;100.00
8286;BME280;4181;43.416;24.598;2022-09-12T11:59:51;99535.28;;;28.65;100.00
8286;BME280;4181;43.416;24.598;2022-09-12T12:05:49;99543.91;;;29.29;100.00
8286;BME280;4181;43.416;24.598;2022-09-12T12:08:18;99538.31;;;29.33;100.00
8286;BME280;4181;43.416;24.598;2022-09-12T12:11:00;99538.28;;;29.26;100.00
8286;BME280;4181;43.416;24.598;2022-09-12T12:14:01;99526.72;;;28.91;100.00
8286;BME280;4181;43.416;24.598;2022-09-12T12:16:30;99548.50;;;28.61;100.00
8286;BME280;4181;43.416;24.598;2022-09-12T12:19:04;99562.88;;;28.26;100.00
8286;BME280;4181;43.416;24.598;2022-09-12T12:21:36;99553.53;;;27.85;100.00
8286;BME280;4181;43.416;24.598;2022-09-12T12:44:59;99533.09;;;28.84;100.00
8286;BME280;4181;43.416;24.598;2022-09-12T12:47:30;99533.81;;;28.78;100.00
8286;BME280;4181;43.416;24.598;2022-09-12T12:50:12;99529.03;;;28.82;100.00
8286;BME280;4181;43.416;24.598;2022-09-12T12:52:59;99541.47;;;28.81;100.00
8286;BME280;4181;43.416;24.598;2022-09-12T12:55:44;99537.59;;;28.52;100.00
8286;BME280;4181;43.416;24.598;2022-09-12T12:58:37;99543.78;;;28.35;100.00
8286;BME280;4181;43.416;24.598;2022-09-12T13:01:14;99548.38;;;28.17;100.00
8286;BME280;4181;43.416;24.598;2022-09-12T13:03:44;99532.41;;;28.24;100.00
8286;BME280;4181;43.416;24.598;2022-09-12T13:09:07;99553.84;;;28.06;100.00
8286;BME280;4181;43.416;24.598;2022-09-12T13:11:37;99553.69;;;27.92;100.00
8286;BME280;4181;43.416;24.598;2022-09-12T13:17:31;99554.69;;;28.10;100.00
8286;BME280;4181;43.416;24.598;2022-09-12T13:22:48;99550.88;;;27.92;100.00
8286;BME280;4181;43.416;24.598;2022-09-12T13:25:29;99547.34;;;27.99;100.00
8286;BME280;4181;43.416;24.598;2022-09-12T13:30:38;99563.94;;;27.85;100.00
8286;BME280;4181;43.416;24.598;2022-09-12T13:39:03;99565.63;;;27.63;100.00
8286;BME280;4181;43.416;24.598;2022-09-12T13:44:23;99565.06;;;27.51;100.00
8286;BME280;4181;43.416;24.598;2022-09-12T13:46:50;99549.84;;;27.52;100.00
8286;BME280;4181;43.416;24.598;2022-09-12T13:49:36;99560.34;;;27.58;100.00
8286;BME280;4181;43.416;24.598;2022-09-12T13:54:39;99549.25;;;27.65;100.00
8286;BME280;4181;43.416;24.598;2022-09-12T13:57:05;99551.50;;;27.56;100.00
8286;BME280;4181;43.416;24.598;2022-09-12T13:59:38;99553.34;;;27.45;100.00
8286;BME280;4181;43.416;24.598;2022-09-12T14:02:25;99570.59;;;27.24;100.00
8286;BME280;4181;43.416;24.598;2022-09-12T14:04:52;99555.44;;;27.25;100.00
8286;BME280;4181;43.416;24.598;2022-09-12T14:08:01;99562.53;;;27.19;100.00
8286;BME280;4181;43.416;24.598;2022-09-12T14:10:36;99561.28;;;27.17;100.00
8286;BME280;4181;43.416;24.598;2022-09-12T14:13:10;99565.56;;;27.11;100.00
8286;BME280;4181;43.416;24.598;2022-09-12T14:15:37;99569.63;;;26.91;100.00
8286;BME280;4181;43.416;24.598;2022-09-12T14:18:04;99559.25;;;26.91;100.00
8286;BME280;4181;43.416;24.598;2022-09-12T14:20:35;99564.78;;;26.88;100.00
8286;BME280;4181;43.416;24.598;2022-09-12T14:23:14;99562.41;;;26.90;100.00
8286;BME280;4181;43.416;24.598;2022-09-12T14:25:46;99562.94;;;26.95;100.00
8286;BME280;4181;43.416;24.598;2022-09-12T14:28:16;99579.97;;;26.87;100.00
8286;BME280;4181;43.416;24.598;2022-09-12T14:31:01;99580.97;;;26.56;100.00
8286;BME280;4181;43.416;24.598;2022-09-12T14:33:50;99583.25;;;26.51;100.00
8286;BME280;4181;43.416;24.598;2022-09-12T14:36:41;99589.50;;;26.63;100.00
8286;BME280;4181;43.416;24.598;2022-09-12T14:42:15;99576.94;;;26.54;100.00
8286;BME280;4181;43.416;24.598;2022-09-12T14:44:53;99589.66;;;26.51;100.00
8286;BME280;4181;43.416;24.598;2022-09-12T14:47:24;99603.41;;;26.41;100.00
8286;BME280;4181;43.416;24.598;2022-09-12T14:49:53;99592.03;;;26.30;100.00
8286;BME280;4181;43.416;24.598;2022-09-12T14:52:32;99594.47;;;26.32;100.00
8286;BME280;4181;43.416;24.598;2022-09-12T14:55:03;99604.75;;;26.28;100.00
8286;BME280;4181;43.416;24.598;2022-09-12T14:57:43;99602.63;;;26.21;100.00
8286;BME280;4181;43.416;24.598;2022-09-12T15:02:43;99607.19;;;26.10;100.00
8286;BME280;4181;43.416;24.598;2022-09-12T15:07:36;99603.75;;;26.01;100.00
8286;BME280;4181;43.416;24.598;2022-09-12T15:10:27;99606.47;;;25.78;100.00
8286;BME280;4181;43.416;24.598;2022-09-12T15:15:30;99605.66;;;25.62;100.00
8286;BME280;4181;43.416;24.598;2022-09-12T15:17:55;99589.84;;;25.51;100.00
8286;BME280;4181;43.416;24.598;2022-09-12T15:20:21;99612.00;;;25.44;100.00
8286;BME280;4181;43.416;24.598;2022-09-12T15:22:47;99618.22;;;25.37;100.00
8286;BME280;4181;43.416;24.598;2022-09-12T15:25:13;99606.63;;;25.35;100.00
8286;BME280;4181;43.416;24.598;2022-09-12T15:27:38;99604.09;;;25.30;100.00
8286;BME280;4181;43.416;24.598;2022-09-12T15:30:08;99602.16;;;25.34;100.00
8286;BME280;4181;43.416;24.598;2022-09-12T15:32:35;99619.00;;;25.22;100.00
8286;BME280;4181;43.416;24.598;2022-09-12T15:35:01;99632.91;;;25.03;100.00
8286;BME280;4181;43.416;24.598;2022-09-12T15:37:28;99626.41;;;24.99;100.00
8286;BME280;4181;43.416;24.598;2022-09-12T15:39:53;99629.47;;;24.94;100.00
8286;BME280;4181;43.416;24.598;2022-09-12T15:42:26;99642.06;;;24.88;100.00
8286;BME280;4181;43.416;24.598;2022-09-12T15:44:52;99631.22;;;24.71;100.00
8286;BME280;4181;43.416;24.598;2022-09-12T15:47:18;99636.53;;;24.76;100.00
8286;BME280;4181;43.416;24.598;2022-09-12T15:49:43;99637.56;;;24.83;100.00
8286;BME280;4181;43.416;24.598;2022-09-12T15:52:14;99623.16;;;24.81;100.00
8286;BME280;4181;43.416;24.598;2022-09-12T15:54:41;99637.38;;;24.76;100.00
8286;BME280;4181;43.416;24.598;2022-09-12T15:57:06;99635.63;;;24.72;100.00
8286;BME280;4181;43.416;24.598;2022-09-12T15:59:32;99631.25;;;24.59;100.00
8286;BME280;4181;43.416;24.598;2022-09-12T16:01:58;99638.16;;;24.49;100.00
8286;BME280;4181;43.416;24.598;2022-09-12T16:04:26;99635.84;;;24.51;100.00
8286;BME280;4181;43.416;24.598;2022-09-12T16:06:54;99639.97;;;24.57;100.00
8286;BME280;4181;43.416;24.598;2022-09-12T16:09:20;99632.47;;;24.46;100.00
8286;BME280;4181;43.416;24.598;2022-09-12T16:11:46;99640.50;;;24.47;100.00
8286;BME280;4181;43.416;24.598;2022-09-12T16:14:16;99630.63;;;24.50;100.00
8286;BME280;4181;43.416;24.598;2022-09-12T16:16:43;99639.84;;;24.38;100.00
8286;BME280;4181;43.416;24.598;2022-09-12T16:19:10;99637.00;;;24.23;100.00
8286;BME280;4181;43.416;24.598;2022-09-12T16:21:37;99649.63;;;24.20;100.00
8286;BME280;4181;43.416;24.598;2022-09-12T16:24:03;99641.47;;;24.00;100.00
8286;BME280;4181;43.416;24.598;2022-09-12T16:26:29;99658.19;;;24.00;100.00
8286;BME280;4181;43.416;24.598;2022-09-12T16:28:55;99641.91;;;23.90;100.00
8286;BME280;4181;43.416;24.598;2022-09-12T16:31:21;99667.22;;;23.97;100.00